METAR Data
IDs: Format: Raw Decoded Include TAF

Data at: 0855 UTC 28 Mar 2020

METAR for:KHLB (Batesville Arpt, IN, US)
Text:KHLB 280835Z AUTO 17005KT 6SM BR FEW034 FEW043 BKN050 14/14 A2975 RMK A01
Temperature: 14.0°C ( 57°F)
Dewpoint: 14.0°C ( 57°F) [RH = 100%]
Pressure (altimeter):29.75 inches Hg (1007.5 mb)
Winds:from the S (170 degrees) at 6 MPH (5 knots; 2.6 m/s)
Visibility: 6 sm ( 10 km)
Ceiling:5000 feet AGL
Clouds: few clouds at 3400 feet AGL, few clouds at 4300 feet AGL, broken clouds at 5000 feet AGL
Weather:BR (mist)
QC Flag:automated observation with no human augmentation
Text:KHLB 280815Z AUTO 00000KT 9SM SCT033 SCT041 BKN055 14/14 A2976 RMK A01
Temperature: 14.0°C ( 57°F)
Dewpoint: 14.0°C ( 57°F) [RH = 100%]
Pressure (altimeter):29.76 inches Hg (1007.9 mb)
Winds:calm
Visibility: 9 sm ( 14 km)
Ceiling:5500 feet AGL
Clouds: scattered clouds at 3300 feet AGL, scattered clouds at 4100 feet AGL, broken clouds at 5500 feet AGL
QC Flag:automated observation with no human augmentation
Text:KHLB 280755Z AUTO 00000KT 9SM FEW035 SCT048 BKN055 14/14 A2976 RMK A01
Temperature: 14.0°C ( 57°F)
Dewpoint: 14.0°C ( 57°F) [RH = 100%]
Pressure (altimeter):29.76 inches Hg (1007.9 mb)
Winds:calm
Visibility: 9 sm ( 14 km)
Ceiling:5500 feet AGL
Clouds: few clouds at 3500 feet AGL, scattered clouds at 4800 feet AGL, broken clouds at 5500 feet AGL
QC Flag:automated observation with no human augmentation
Text:KHLB 280735Z AUTO 18004KT 9SM FEW034 SCT040 BKN060 13/13 A2975 RMK A01
Temperature: 13.0°C ( 55°F)
Dewpoint: 13.0°C ( 55°F) [RH = 100%]
Pressure (altimeter):29.75 inches Hg (1007.5 mb)
Winds:from the S (180 degrees) at 5 MPH (4 knots; 2.1 m/s)
Visibility: 9 sm ( 14 km)
Ceiling:6000 feet AGL
Clouds: few clouds at 3400 feet AGL, scattered clouds at 4000 feet AGL, broken clouds at 6000 feet AGL
QC Flag:automated observation with no human augmentation
Text:KHLB 280715Z AUTO 16006KT 10SM FEW042 BKN065 OVC085 13/13 A2977 RMK A01
Temperature: 13.0°C ( 55°F)
Dewpoint: 13.0°C ( 55°F) [RH = 100%]
Pressure (altimeter):29.77 inches Hg (1008.2 mb)
Winds:from the SSE (160 degrees) at 7 MPH (6 knots; 3.1 m/s)
Visibility:10 or more sm (16+ km)
Ceiling:6500 feet AGL
Clouds: few clouds at 4200 feet AGL, broken clouds at 6500 feet AGL, overcast cloud deck at 8500 feet AGL
QC Flag:automated observation with no human augmentation
Text:KHLB 280655Z AUTO 00000KT 10SM SCT037 BKN042 OVC075 14/14 A2980 RMK A01
Temperature: 14.0°C ( 57°F)
Dewpoint: 14.0°C ( 57°F) [RH = 100%]
Pressure (altimeter):29.80 inches Hg (1009.2 mb)
Winds:calm
Visibility:10 or more sm (16+ km)
Ceiling:4200 feet AGL
Clouds: scattered clouds at 3700 feet AGL, broken clouds at 4200 feet AGL, overcast cloud deck at 7500 feet AGL
QC Flag:automated observation with no human augmentation
Text:KHLB 280635Z AUTO 00000KT 10SM BKN039 OVC050 14/14 A2982 RMK A01
Temperature: 14.0°C ( 57°F)
Dewpoint: 14.0°C ( 57°F) [RH = 100%]
Pressure (altimeter):29.82 inches Hg (1009.9 mb)
Winds:calm
Visibility:10 or more sm (16+ km)
Ceiling:3900 feet AGL
Clouds: broken clouds at 3900 feet AGL, overcast cloud deck at 5000 feet AGL
QC Flag:automated observation with no human augmentation
Text:KHLB 280615Z AUTO 00000KT 10SM BKN040 OVC048 14/14 A2982 RMK A01
Temperature: 14.0°C ( 57°F)
Dewpoint: 14.0°C ( 57°F) [RH = 100%]
Pressure (altimeter):29.82 inches Hg (1009.9 mb)
Winds:calm
Visibility:10 or more sm (16+ km)
Ceiling:4000 feet AGL
Clouds: broken clouds at 4000 feet AGL, overcast cloud deck at 4800 feet AGL
QC Flag:automated observation with no human augmentation
Text:KHLB 280555Z AUTO 00000KT 10SM BKN036 BKN041 OVC110 14/14 A2982 RMK A01
Temperature: 14.0°C ( 57°F)
Dewpoint: 14.0°C ( 57°F) [RH = 100%]
Pressure (altimeter):29.82 inches Hg (1009.9 mb)
Winds:calm
Visibility:10 or more sm (16+ km)
Ceiling:3600 feet AGL
Clouds: broken clouds at 3600 feet AGL, broken clouds at 4100 feet AGL, overcast cloud deck at 11000 feet AGL
QC Flag:automated observation with no human augmentation
Text:KHLB 280535Z AUTO 13004KT 10SM BKN035 OVC040 14/14 A2980 RMK A01
Temperature: 14.0°C ( 57°F)
Dewpoint: 14.0°C ( 57°F) [RH = 100%]
Pressure (altimeter):29.80 inches Hg (1009.2 mb)
Winds:from the SE (130 degrees) at 5 MPH (4 knots; 2.1 m/s)
Visibility:10 or more sm (16+ km)
Ceiling:3500 feet AGL
Clouds: broken clouds at 3500 feet AGL, overcast cloud deck at 4000 feet AGL
QC Flag:automated observation with no human augmentation
Text:KHLB 280515Z AUTO 00000KT 10SM BKN037 14/14 A2980 RMK A01
Temperature: 14.0°C ( 57°F)
Dewpoint: 14.0°C ( 57°F) [RH = 100%]
Pressure (altimeter):29.80 inches Hg (1009.2 mb)
Winds:calm
Visibility:10 or more sm (16+ km)
Ceiling:3700 feet AGL
Clouds: broken clouds at 3700 feet AGL
QC Flag:automated observation with no human augmentation
Text:KHLB 280455Z AUTO 00000KT 10SM FEW022 FEW033 SCT043 14/14 A2980 RMK A01
Temperature: 14.0°C ( 57°F)
Dewpoint: 14.0°C ( 57°F) [RH = 100%]
Pressure (altimeter):29.80 inches Hg (1009.2 mb)
Winds:calm
Visibility:10 or more sm (16+ km)
Ceiling:at least 12,000 feet AGL
Clouds: few clouds at 2200 feet AGL, few clouds at 3300 feet AGL, scattered clouds at 4300 feet AGL
QC Flag:automated observation with no human augmentation
Text:KHLB 280435Z AUTO 10007KT 10SM SCT032 BKN040 BKN047 14/14 A2976 RMK A01
Temperature: 14.0°C ( 57°F)
Dewpoint: 14.0°C ( 57°F) [RH = 100%]
Pressure (altimeter):29.76 inches Hg (1007.9 mb)
Winds:from the E (100 degrees) at 8 MPH (7 knots; 3.6 m/s)
Visibility:10 or more sm (16+ km)
Ceiling:4000 feet AGL
Clouds: scattered clouds at 3200 feet AGL, broken clouds at 4000 feet AGL, broken clouds at 4700 feet AGL
QC Flag:automated observation with no human augmentation
Text:KHLB 280415Z AUTO 12006G12KT 10SM BKN032 BKN037 OVC110 14/14 A2979 RMK A01
Temperature: 14.0°C ( 57°F)
Dewpoint: 14.0°C ( 57°F) [RH = 100%]
Pressure (altimeter):29.79 inches Hg (1008.9 mb)
Winds:from the ESE (120 degrees) at 7 MPH (6 knots; 3.1 m/s) gusting to 14 MPH (12 knots; 6.2 m/s)
Visibility:10 or more sm (16+ km)
Ceiling:3200 feet AGL
Clouds: broken clouds at 3200 feet AGL, broken clouds at 3700 feet AGL, overcast cloud deck at 11000 feet AGL
QC Flag:automated observation with no human augmentation
Text:KHLB 280355Z AUTO 15007KT 10SM SCT033 BKN050 OVC110 13/13 A2983 RMK A01
Temperature: 13.0°C ( 55°F)
Dewpoint: 13.0°C ( 55°F) [RH = 100%]
Pressure (altimeter):29.83 inches Hg (1010.2 mb)
Winds:from the SSE (150 degrees) at 8 MPH (7 knots; 3.6 m/s)
Visibility:10 or more sm (16+ km)
Ceiling:5000 feet AGL
Clouds: scattered clouds at 3300 feet AGL, broken clouds at 5000 feet AGL, overcast cloud deck at 11000 feet AGL
QC Flag:automated observation with no human augmentation
Text:KHLB 280335Z AUTO 12005KT 10SM OVC034 14/14 A2986 RMK A01
Temperature: 14.0°C ( 57°F)
Dewpoint: 14.0°C ( 57°F) [RH = 100%]
Pressure (altimeter):29.86 inches Hg (1011.3 mb)
Winds:from the ESE (120 degrees) at 6 MPH (5 knots; 2.6 m/s)
Visibility:10 or more sm (16+ km)
Ceiling:3400 feet AGL
Clouds: overcast cloud deck at 3400 feet AGL
QC Flag:automated observation with no human augmentation
Text:KHLB 280315Z AUTO 06004KT 10SM OVC034 14/14 A2987 RMK A01
Temperature: 14.0°C ( 57°F)
Dewpoint: 14.0°C ( 57°F) [RH = 100%]
Pressure (altimeter):29.87 inches Hg (1011.6 mb)
Winds:from the ENE (60 degrees) at 5 MPH (4 knots; 2.1 m/s)
Visibility:10 or more sm (16+ km)
Ceiling:3400 feet AGL
Clouds: overcast cloud deck at 3400 feet AGL
QC Flag:automated observation with no human augmentation
Text:KHLB 280255Z AUTO 05005KT 10SM OVC036 14/14 A2986 RMK A01
Temperature: 14.0°C ( 57°F)
Dewpoint: 14.0°C ( 57°F) [RH = 100%]
Pressure (altimeter):29.86 inches Hg (1011.3 mb)
Winds:from the NE (50 degrees) at 6 MPH (5 knots; 2.6 m/s)
Visibility:10 or more sm (16+ km)
Ceiling:3600 feet AGL
Clouds: overcast cloud deck at 3600 feet AGL
QC Flag:automated observation with no human augmentation
Text:KHLB 280235Z AUTO 06004KT 10SM OVC038 14/14 A2986 RMK A01
Temperature: 14.0°C ( 57°F)
Dewpoint: 14.0°C ( 57°F) [RH = 100%]
Pressure (altimeter):29.86 inches Hg (1011.3 mb)
Winds:from the ENE (60 degrees) at 5 MPH (4 knots; 2.1 m/s)
Visibility:10 or more sm (16+ km)
Ceiling:3800 feet AGL
Clouds: overcast cloud deck at 3800 feet AGL
QC Flag:automated observation with no human augmentation
Text:KHLB 280215Z AUTO 05005KT 10SM OVC041 14/14 A2985 RMK A01
Temperature: 14.0°C ( 57°F)
Dewpoint: 14.0°C ( 57°F) [RH = 100%]
Pressure (altimeter):29.85 inches Hg (1010.9 mb)
Winds:from the NE (50 degrees) at 6 MPH (5 knots; 2.6 m/s)
Visibility:10 or more sm (16+ km)
Ceiling:4100 feet AGL
Clouds: overcast cloud deck at 4100 feet AGL
QC Flag:automated observation with no human augmentation
Text:KHLB 280155Z AUTO 07005KT 10SM FEW007 BKN044 OVC070 14/14 A2984 RMK A01
Temperature: 14.0°C ( 57°F)
Dewpoint: 14.0°C ( 57°F) [RH = 100%]
Pressure (altimeter):29.84 inches Hg (1010.6 mb)
Winds:from the ENE (70 degrees) at 6 MPH (5 knots; 2.6 m/s)
Visibility:10 or more sm (16+ km)
Ceiling:4400 feet AGL
Clouds: few clouds at 700 feet AGL, broken clouds at 4400 feet AGL, overcast cloud deck at 7000 feet AGL
QC Flag:automated observation with no human augmentation
Text:KHLB 280135Z AUTO 09007KT 10SM FEW007 BKN060 OVC070 14/14 A2984 RMK A01
Temperature: 14.0°C ( 57°F)
Dewpoint: 14.0°C ( 57°F) [RH = 100%]
Pressure (altimeter):29.84 inches Hg (1010.6 mb)
Winds:from the E (90 degrees) at 8 MPH (7 knots; 3.6 m/s)
Visibility:10 or more sm (16+ km)
Ceiling:6000 feet AGL
Clouds: few clouds at 700 feet AGL, broken clouds at 6000 feet AGL, overcast cloud deck at 7000 feet AGL
QC Flag:automated observation with no human augmentation
Text:KHLB 280115Z AUTO 09005KT 10SM SCT007 BKN049 OVC055 14/14 A2986 RMK A01
Temperature: 14.0°C ( 57°F)
Dewpoint: 14.0°C ( 57°F) [RH = 100%]
Pressure (altimeter):29.86 inches Hg (1011.3 mb)
Winds:from the E (90 degrees) at 6 MPH (5 knots; 2.6 m/s)
Visibility:10 or more sm (16+ km)
Ceiling:4900 feet AGL
Clouds: scattered clouds at 700 feet AGL, broken clouds at 4900 feet AGL, overcast cloud deck at 5500 feet AGL
QC Flag:automated observation with no human augmentation
Text:KHLB 280055Z AUTO 09005KT 10SM BKN007 OVC050 14/14 A2986 RMK A01
Temperature: 14.0°C ( 57°F)
Dewpoint: 14.0°C ( 57°F) [RH = 100%]
Pressure (altimeter):29.86 inches Hg (1011.3 mb)
Winds:from the E (90 degrees) at 6 MPH (5 knots; 2.6 m/s)
Visibility:10 or more sm (16+ km)
Ceiling:700 feet AGL
Clouds: broken clouds at 700 feet AGL, overcast cloud deck at 5000 feet AGL
QC Flag:automated observation with no human augmentation
Text:KHLB 280035Z AUTO 10005KT 10SM OVC007 14/14 A2985 RMK A01
Temperature: 14.0°C ( 57°F)
Dewpoint: 14.0°C ( 57°F) [RH = 100%]
Pressure (altimeter):29.85 inches Hg (1010.9 mb)
Winds:from the E (100 degrees) at 6 MPH (5 knots; 2.6 m/s)
Visibility:10 or more sm (16+ km)
Ceiling:700 feet AGL
Clouds: overcast cloud deck at 700 feet AGL
QC Flag:automated observation with no human augmentation
Text:KHLB 280015Z AUTO 09006KT 10SM OVC006 14/14 A2984 RMK A01
Temperature: 14.0°C ( 57°F)
Dewpoint: 14.0°C ( 57°F) [RH = 100%]
Pressure (altimeter):29.84 inches Hg (1010.6 mb)
Winds:from the E (90 degrees) at 7 MPH (6 knots; 3.1 m/s)
Visibility:10 or more sm (16+ km)
Ceiling:600 feet AGL
Clouds: overcast cloud deck at 600 feet AGL
QC Flag:automated observation with no human augmentation
Text:KHLB 272355Z AUTO 07007KT 8SM OVC006 14/14 A2984 RMK A01
Temperature: 14.0°C ( 57°F)
Dewpoint: 14.0°C ( 57°F) [RH = 100%]
Pressure (altimeter):29.84 inches Hg (1010.6 mb)
Winds:from the ENE (70 degrees) at 8 MPH (7 knots; 3.6 m/s)
Visibility: 8 sm ( 13 km)
Ceiling:600 feet AGL
Clouds: overcast cloud deck at 600 feet AGL
QC Flag:automated observation with no human augmentation
Text:KHLB 272335Z AUTO 08008G13KT 8SM OVC006 14/14 A2984 RMK A01
Temperature: 14.0°C ( 57°F)
Dewpoint: 14.0°C ( 57°F) [RH = 100%]
Pressure (altimeter):29.84 inches Hg (1010.6 mb)
Winds:from the E (80 degrees) at 9 MPH (8 knots; 4.1 m/s) gusting to 15 MPH (13 knots; 6.7 m/s)
Visibility: 8 sm ( 13 km)
Ceiling:600 feet AGL
Clouds: overcast cloud deck at 600 feet AGL
QC Flag:automated observation with no human augmentation
Text:KHLB 272315Z AUTO 6/50000007G13KT 9SM OVC006 14/14 A2983 RMK A01
Temperature: 14.0°C ( 57°F)
Dewpoint: 14.0°C ( 57°F) [RH = 100%]
Pressure (altimeter):29.83 inches Hg (1010.2 mb)
Winds:variable direction winds at 8 MPH (7 knots; 3.6 m/s) gusting to 15 MPH (13 knots; 6.7 m/s)
Visibility: 9 sm ( 14 km)
Ceiling:600 feet AGL
Clouds: overcast cloud deck at 600 feet AGL
QC Flag:automated observation with no human augmentation
Text:KHLB 272255Z AUTO 06011KT 10SM OVC007 15/15 A2983 RMK A01
Temperature: 15.0°C ( 59°F)
Dewpoint: 15.0°C ( 59°F) [RH = 100%]
Pressure (altimeter):29.83 inches Hg (1010.2 mb)
Winds:from the ENE (60 degrees) at 13 MPH (11 knots; 5.7 m/s)
Visibility:10 or more sm (16+ km)
Ceiling:700 feet AGL
Clouds: overcast cloud deck at 700 feet AGL
QC Flag:automated observation with no human augmentation
Text:KHLB 272235Z AUTO 06009KT 10SM BKN008 BKN060 15/15 A2982 RMK A01
Temperature: 15.0°C ( 59°F)
Dewpoint: 15.0°C ( 59°F) [RH = 100%]
Pressure (altimeter):29.82 inches Hg (1009.9 mb)
Winds:from the ENE (60 degrees) at 10 MPH (9 knots; 4.6 m/s)
Visibility:10 or more sm (16+ km)
Ceiling:800 feet AGL
Clouds: broken clouds at 800 feet AGL, broken clouds at 6000 feet AGL
QC Flag:automated observation with no human augmentation
Text:KHLB 272215Z AUTO 05010KT 10SM SCT009 BKN065 16/16 A2982 RMK A01
Temperature: 16.0°C ( 61°F)
Dewpoint: 16.0°C ( 61°F) [RH = 100%]
Pressure (altimeter):29.82 inches Hg (1009.9 mb)
Winds:from the NE (50 degrees) at 12 MPH (10 knots; 5.1 m/s)
Visibility:10 or more sm (16+ km)
Ceiling:6500 feet AGL
Clouds: scattered clouds at 900 feet AGL, broken clouds at 6500 feet AGL
QC Flag:automated observation with no human augmentation
Text:KHLB 272155Z AUTO 06011KT 10SM SCT070 17/17 A2982 RMK A01
Temperature: 17.0°C ( 63°F)
Dewpoint: 17.0°C ( 63°F) [RH = 100%]
Pressure (altimeter):29.82 inches Hg (1009.9 mb)
Winds:from the ENE (60 degrees) at 13 MPH (11 knots; 5.7 m/s)
Visibility:10 or more sm (16+ km)
Ceiling:at least 12,000 feet AGL
Clouds: scattered clouds at 7000 feet AGL
QC Flag:automated observation with no human augmentation
Text:KHLB 272135Z AUTO 04008KT 10SM FEW065 FEW080 17/17 A2980 RMK A01
Temperature: 17.0°C ( 63°F)
Dewpoint: 17.0°C ( 63°F) [RH = 100%]
Pressure (altimeter):29.80 inches Hg (1009.2 mb)
Winds:from the NE (40 degrees) at 9 MPH (8 knots; 4.1 m/s)
Visibility:10 or more sm (16+ km)
Ceiling:at least 12,000 feet AGL
Clouds: few clouds at 6500 feet AGL, few clouds at 8000 feet AGL
QC Flag:automated observation with no human augmentation
Text:KHLB 272115Z AUTO 05007KT 10SM SCT080 17/17 A2981 RMK A01
Temperature: 17.0°C ( 63°F)
Dewpoint: 17.0°C ( 63°F) [RH = 100%]
Pressure (altimeter):29.81 inches Hg (1009.6 mb)
Winds:from the NE (50 degrees) at 8 MPH (7 knots; 3.6 m/s)
Visibility:10 or more sm (16+ km)
Ceiling:at least 12,000 feet AGL
Clouds: scattered clouds at 8000 feet AGL
QC Flag:automated observation with no human augmentation
Text:KHLB 272055Z AUTO 08007KT 10SM FEW080 16/16 A2980 RMK A01
Temperature: 16.0°C ( 61°F)
Dewpoint: 16.0°C ( 61°F) [RH = 100%]
Pressure (altimeter):29.80 inches Hg (1009.2 mb)
Winds:from the E (80 degrees) at 8 MPH (7 knots; 3.6 m/s)
Visibility:10 or more sm (16+ km)
Ceiling:at least 12,000 feet AGL
Clouds: few clouds at 8000 feet AGL
QC Flag:automated observation with no human augmentation
Text:KHLB 272035Z AUTO 07006KT 10SM SCT080 16/16 A2981 RMK A01
Temperature: 16.0°C ( 61°F)
Dewpoint: 16.0°C ( 61°F) [RH = 100%]
Pressure (altimeter):29.81 inches Hg (1009.6 mb)
Winds:from the ENE (70 degrees) at 7 MPH (6 knots; 3.1 m/s)
Visibility:10 or more sm (16+ km)
Ceiling:at least 12,000 feet AGL
Clouds: scattered clouds at 8000 feet AGL
QC Flag:automated observation with no human augmentation
Text:KHLB 272015Z AUTO 04006G11KT 9SM OVC075 15/15 A2983 RMK A01
Temperature: 15.0°C ( 59°F)
Dewpoint: 15.0°C ( 59°F) [RH = 100%]
Pressure (altimeter):29.83 inches Hg (1010.2 mb)
Winds:from the NE (40 degrees) at 7 MPH (6 knots; 3.1 m/s) gusting to 13 MPH (11 knots; 5.7 m/s)
Visibility: 9 sm ( 14 km)
Ceiling:7500 feet AGL
Clouds: overcast cloud deck at 7500 feet AGL
QC Flag:automated observation with no human augmentation
Text:KHLB 271955Z AUTO 05007KT 9SM OVC075 15/15 A2983 RMK A01
Temperature: 15.0°C ( 59°F)
Dewpoint: 15.0°C ( 59°F) [RH = 100%]
Pressure (altimeter):29.83 inches Hg (1010.2 mb)
Winds:from the NE (50 degrees) at 8 MPH (7 knots; 3.6 m/s)
Visibility: 9 sm ( 14 km)
Ceiling:7500 feet AGL
Clouds: overcast cloud deck at 7500 feet AGL
QC Flag:automated observation with no human augmentation
Text:KHLB 271935Z AUTO 03006KT 10SM OVC075 15/15 A2984 RMK A01
Temperature: 15.0°C ( 59°F)
Dewpoint: 15.0°C ( 59°F) [RH = 100%]
Pressure (altimeter):29.84 inches Hg (1010.6 mb)
Winds:from the NNE (30 degrees) at 7 MPH (6 knots; 3.1 m/s)
Visibility:10 or more sm (16+ km)
Ceiling:7500 feet AGL
Clouds: overcast cloud deck at 7500 feet AGL
QC Flag:automated observation with no human augmentation
Text:KHLB 271915Z AUTO 01005KT 10SM BKN075 OVC085 16/16 A2984 RMK A01
Temperature: 16.0°C ( 61°F)
Dewpoint: 16.0°C ( 61°F) [RH = 100%]
Pressure (altimeter):29.84 inches Hg (1010.6 mb)
Winds:from the N (10 degrees) at 6 MPH (5 knots; 2.6 m/s)
Visibility:10 or more sm (16+ km)
Ceiling:7500 feet AGL
Clouds: broken clouds at 7500 feet AGL, overcast cloud deck at 8500 feet AGL
QC Flag:automated observation with no human augmentation
Text:KHLB 271855Z AUTO 03007KT 10SM BKN080 17/17 A2983 RMK A01
Temperature: 17.0°C ( 63°F)
Dewpoint: 17.0°C ( 63°F) [RH = 100%]
Pressure (altimeter):29.83 inches Hg (1010.2 mb)
Winds:from the NNE (30 degrees) at 8 MPH (7 knots; 3.6 m/s)
Visibility:10 or more sm (16+ km)
Ceiling:8000 feet AGL
Clouds: broken clouds at 8000 feet AGL
QC Flag:automated observation with no human augmentation
Text:KHLB 271835Z AUTO 02006G13KT 10SM FEW014 FEW020 BKN080 16/16 A2985 RMK A01
Temperature: 16.0°C ( 61°F)
Dewpoint: 16.0°C ( 61°F) [RH = 100%]
Pressure (altimeter):29.85 inches Hg (1010.9 mb)
Winds:from the NNE (20 degrees) at 7 MPH (6 knots; 3.1 m/s) gusting to 15 MPH (13 knots; 6.7 m/s)
Visibility:10 or more sm (16+ km)
Ceiling:8000 feet AGL
Clouds: few clouds at 1400 feet AGL, few clouds at 2000 feet AGL, broken clouds at 8000 feet AGL
QC Flag:automated observation with no human augmentation
Text:KHLB 271815Z AUTO VRB04KT 10SM OVC080 17/17 A2987 RMK A01
Temperature: 17.0°C ( 63°F)
Dewpoint: 17.0°C ( 63°F) [RH = 100%]
Pressure (altimeter):29.87 inches Hg (1011.6 mb)
Winds:variable direction winds at 5 MPH (4 knots; 2.1 m/s)
Visibility:10 or more sm (16+ km)
Ceiling:8000 feet AGL
Clouds: overcast cloud deck at 8000 feet AGL
QC Flag:automated observation with no human augmentation
Text:KHLB 271755Z AUTO 35004KT 10SM OVC080 17/17 A2985 RMK A01
Temperature: 17.0°C ( 63°F)
Dewpoint: 17.0°C ( 63°F) [RH = 100%]
Pressure (altimeter):29.85 inches Hg (1010.9 mb)
Winds:from the N (350 degrees) at 5 MPH (4 knots; 2.1 m/s)
Visibility:10 or more sm (16+ km)
Ceiling:8000 feet AGL
Clouds: overcast cloud deck at 8000 feet AGL
QC Flag:automated observation with no human augmentation
Text:KHLB 271735Z AUTO 13005KT 10SM BKN075 17/17 A2982 RMK A01
Temperature: 17.0°C ( 63°F)
Dewpoint: 17.0°C ( 63°F) [RH = 100%]
Pressure (altimeter):29.82 inches Hg (1009.9 mb)
Winds:from the SE (130 degrees) at 6 MPH (5 knots; 2.6 m/s)
Visibility:10 or more sm (16+ km)
Ceiling:7500 feet AGL
Clouds: broken clouds at 7500 feet AGL
QC Flag:automated observation with no human augmentation
Text:KHLB 271715Z AUTO 13006KT 9SM FEW080 17/17 A2981 RMK A01
Temperature: 17.0°C ( 63°F)
Dewpoint: 17.0°C ( 63°F) [RH = 100%]
Pressure (altimeter):29.81 inches Hg (1009.6 mb)
Winds:from the SE (130 degrees) at 7 MPH (6 knots; 3.1 m/s)
Visibility: 9 sm ( 14 km)
Ceiling:at least 12,000 feet AGL
Clouds: few clouds at 8000 feet AGL
QC Flag:automated observation with no human augmentation
Text:KHLB 271655Z AUTO 15010KT 7SM SCT006 16/16 A2981 RMK A01
Temperature: 16.0°C ( 61°F)
Dewpoint: 16.0°C ( 61°F) [RH = 100%]
Pressure (altimeter):29.81 inches Hg (1009.6 mb)
Winds:from the SSE (150 degrees) at 12 MPH (10 knots; 5.1 m/s)
Visibility: 7 sm ( 11 km)
Ceiling:at least 12,000 feet AGL
Clouds: scattered clouds at 600 feet AGL
QC Flag:automated observation with no human augmentation
Text:KHLB 271635Z AUTO 12009KT 5SM BR OVC006 14/14 A2982 RMK A01
Temperature: 14.0°C ( 57°F)
Dewpoint: 14.0°C ( 57°F) [RH = 100%]
Pressure (altimeter):29.82 inches Hg (1009.9 mb)
Winds:from the ESE (120 degrees) at 10 MPH (9 knots; 4.6 m/s)
Visibility: 5 sm ( 8 km)
Ceiling:600 feet AGL
Clouds: overcast cloud deck at 600 feet AGL
Weather:BR (mist)
QC Flag:automated observation with no human augmentation
Text:KHLB 271615Z AUTO 09006KT 4SM BR OVC006 14/14 A2984 RMK A01
Temperature: 14.0°C ( 57°F)
Dewpoint: 14.0°C ( 57°F) [RH = 100%]
Pressure (altimeter):29.84 inches Hg (1010.6 mb)
Winds:from the E (90 degrees) at 7 MPH (6 knots; 3.1 m/s)
Visibility: 4 sm ( 6 km)
Ceiling:600 feet AGL
Clouds: overcast cloud deck at 600 feet AGL
Weather:BR (mist)
QC Flag:automated observation with no human augmentation
Text:KHLB 271555Z AUTO 12010G16KT 4SM BR OVC005 13/13 A2983 RMK A01 P0001
Temperature: 13.0°C ( 55°F)
Dewpoint: 13.0°C ( 55°F) [RH = 100%]
Pressure (altimeter):29.83 inches Hg (1010.2 mb)
Winds:from the ESE (120 degrees) at 12 MPH (10 knots; 5.1 m/s) gusting to 18 MPH (16 knots; 8.2 m/s)
Visibility: 4 sm ( 6 km)
Ceiling:500 feet AGL
Clouds: overcast cloud deck at 500 feet AGL
Weather:BR (mist)
QC Flag:automated observation with no human augmentation
Text:KHLB 271535Z AUTO 11011KT 4SM BR OVC005 13/13 A2982 RMK A01
Temperature: 13.0°C ( 55°F)
Dewpoint: 13.0°C ( 55°F) [RH = 100%]
Pressure (altimeter):29.82 inches Hg (1009.9 mb)
Winds:from the ESE (110 degrees) at 13 MPH (11 knots; 5.7 m/s)
Visibility: 4 sm ( 6 km)
Ceiling:500 feet AGL
Clouds: overcast cloud deck at 500 feet AGL
Weather:BR (mist)
QC Flag:automated observation with no human augmentation
Text:KHLB 271515Z AUTO 12010KT 5SM BR OVC004 12/12 A2983 RMK A01
Temperature: 12.0°C ( 54°F)
Dewpoint: 12.0°C ( 54°F) [RH = 100%]
Pressure (altimeter):29.83 inches Hg (1010.2 mb)
Winds:from the ESE (120 degrees) at 12 MPH (10 knots; 5.1 m/s)
Visibility: 5 sm ( 8 km)
Ceiling:400 feet AGL
Clouds: overcast cloud deck at 400 feet AGL
Weather:BR (mist)
QC Flag:automated observation with no human augmentation
Text:KHLB 271455Z AUTO 10006G14KT 2SM BR OVC004 12/12 A2983 RMK A01 P0008
Temperature: 12.0°C ( 54°F)
Dewpoint: 12.0°C ( 54°F) [RH = 100%]
Pressure (altimeter):29.83 inches Hg (1010.2 mb)
Winds:from the E (100 degrees) at 7 MPH (6 knots; 3.1 m/s) gusting to 16 MPH (14 knots; 7.2 m/s)
Visibility: 2.00 sm ( 3.22 km)
Ceiling:400 feet AGL
Clouds: overcast cloud deck at 400 feet AGL
Weather:BR (mist)
QC Flag:automated observation with no human augmentation
Text:KHLB 271435Z AUTO 06009KT 2SM BR OVC004 12/12 A2986 RMK A01
Temperature: 12.0°C ( 54°F)
Dewpoint: 12.0°C ( 54°F) [RH = 100%]
Pressure (altimeter):29.86 inches Hg (1011.3 mb)
Winds:from the ENE (60 degrees) at 10 MPH (9 knots; 4.6 m/s)
Visibility: 2.00 sm ( 3.22 km)
Ceiling:400 feet AGL
Clouds: overcast cloud deck at 400 feet AGL
Weather:BR (mist)
QC Flag:automated observation with no human augmentation
Text:KHLB 271415Z AUTO 06006KT 2 1/2SM BR OVC004 12/12 A2987 RMK A01
Temperature: 12.0°C ( 54°F)
Dewpoint: 12.0°C ( 54°F) [RH = 100%]
Pressure (altimeter):29.87 inches Hg (1011.6 mb)
Winds:from the ENE (60 degrees) at 7 MPH (6 knots; 3.1 m/s)
Visibility: 2.50 sm ( 4.02 km)
Ceiling:400 feet AGL
Clouds: overcast cloud deck at 400 feet AGL
Weather:BR (mist)
QC Flag:automated observation with no human augmentation
Text:KHLB 271355Z AUTO 07004KT 2 1/2SM BR OVC005 12/12 A2988 RMK A01 P0004
Temperature: 12.0°C ( 54°F)
Dewpoint: 12.0°C ( 54°F) [RH = 100%]
Pressure (altimeter):29.88 inches Hg (1011.9 mb)
Winds:from the ENE (70 degrees) at 5 MPH (4 knots; 2.1 m/s)
Visibility: 2.50 sm ( 4.02 km)
Ceiling:500 feet AGL
Clouds: overcast cloud deck at 500 feet AGL
Weather:BR (mist)
QC Flag:automated observation with no human augmentation
Text:KHLB 271335Z AUTO 11006KT 2 1/2SM BR OVC005 12/12 A2986 RMK A01
Temperature: 12.0°C ( 54°F)
Dewpoint: 12.0°C ( 54°F) [RH = 100%]
Pressure (altimeter):29.86 inches Hg (1011.3 mb)
Winds:from the ESE (110 degrees) at 7 MPH (6 knots; 3.1 m/s)
Visibility: 2.50 sm ( 4.02 km)
Ceiling:500 feet AGL
Clouds: overcast cloud deck at 500 feet AGL
Weather:BR (mist)
QC Flag:automated observation with no human augmentation
Text:KHLB 271315Z AUTO 09005KT 2SM BR BKN005 OVC035 12/12 A2987 RMK A01
Temperature: 12.0°C ( 54°F)
Dewpoint: 12.0°C ( 54°F) [RH = 100%]
Pressure (altimeter):29.87 inches Hg (1011.6 mb)
Winds:from the E (90 degrees) at 6 MPH (5 knots; 2.6 m/s)
Visibility: 2.00 sm ( 3.22 km)
Ceiling:500 feet AGL
Clouds: broken clouds at 500 feet AGL, overcast cloud deck at 3500 feet AGL
Weather:BR (mist)
QC Flag:automated observation with no human augmentation
Text:KHLB 271255Z AUTO 11005KT 2 1/2SM BR OVC004 12/12 A2987 RMK A01 P0008
Temperature: 12.0°C ( 54°F)
Dewpoint: 12.0°C ( 54°F) [RH = 100%]
Pressure (altimeter):29.87 inches Hg (1011.6 mb)
Winds:from the ESE (110 degrees) at 6 MPH (5 knots; 2.6 m/s)
Visibility: 2.50 sm ( 4.02 km)
Ceiling:400 feet AGL
Clouds: overcast cloud deck at 400 feet AGL
Weather:BR (mist)
QC Flag:automated observation with no human augmentation
Text:KHLB 271235Z AUTO 06006KT 1 3/4SM BR OVC005 12/12 A2985 RMK A01
Temperature: 12.0°C ( 54°F)
Dewpoint: 12.0°C ( 54°F) [RH = 100%]
Pressure (altimeter):29.85 inches Hg (1010.9 mb)
Winds:from the ENE (60 degrees) at 7 MPH (6 knots; 3.1 m/s)
Visibility: 1.75 sm ( 2.82 km)
Ceiling:500 feet AGL
Clouds: overcast cloud deck at 500 feet AGL
Weather:BR (mist)
QC Flag:automated observation with no human augmentation
Text:KHLB 271215Z AUTO 06007KT 2 1/2SM BR SCT004 BKN030 OVC085 12/12 A2986 RMK A01
Temperature: 12.0°C ( 54°F)
Dewpoint: 12.0°C ( 54°F) [RH = 100%]
Pressure (altimeter):29.86 inches Hg (1011.3 mb)
Winds:from the ENE (60 degrees) at 8 MPH (7 knots; 3.6 m/s)
Visibility: 2.50 sm ( 4.02 km)
Ceiling:3000 feet AGL
Clouds: scattered clouds at 400 feet AGL, broken clouds at 3000 feet AGL, overcast cloud deck at 8500 feet AGL
Weather:BR (mist)
QC Flag:automated observation with no human augmentation
Text:KHLB 271155Z AUTO 16005KT 2SM BR SCT007 BKN029 OVC085 12/12 A2988 RMK A01 P0014
Temperature: 12.0°C ( 54°F)
Dewpoint: 12.0°C ( 54°F) [RH = 100%]
Pressure (altimeter):29.88 inches Hg (1011.9 mb)
Winds:from the SSE (160 degrees) at 6 MPH (5 knots; 2.6 m/s)
Visibility: 2.00 sm ( 3.22 km)
Ceiling:2900 feet AGL
Clouds: scattered clouds at 700 feet AGL, broken clouds at 2900 feet AGL, overcast cloud deck at 8500 feet AGL
Weather:BR (mist)
QC Flag:automated observation with no human augmentation
Text:KHLB 271135Z AUTO 16003KT 3SM BR OVC007 12/12 A2989 RMK A01
Temperature: 12.0°C ( 54°F)
Dewpoint: 12.0°C ( 54°F) [RH = 100%]
Pressure (altimeter):29.89 inches Hg (1012.3 mb)
Winds:from the SSE (160 degrees) at 3 MPH (3 knots; 1.5 m/s)
Visibility: 3 sm ( 5 km)
Ceiling:700 feet AGL
Clouds: overcast cloud deck at 700 feet AGL
Weather:BR (mist)
QC Flag:automated observation with no human augmentation
Text:KHLB 271115Z AUTO 08005KT 4SM BR OVC007 12/12 A2985 RMK A01
Temperature: 12.0°C ( 54°F)
Dewpoint: 12.0°C ( 54°F) [RH = 100%]
Pressure (altimeter):29.85 inches Hg (1010.9 mb)
Winds:from the E (80 degrees) at 6 MPH (5 knots; 2.6 m/s)
Visibility: 4 sm ( 6 km)
Ceiling:700 feet AGL
Clouds: overcast cloud deck at 700 feet AGL
Weather:BR (mist)
QC Flag:automated observation with no human augmentation
Text:KHLB 271055Z AUTO 06004KT 4SM BR OVC007 12/12 A2986 RMK A01
Temperature: 12.0°C ( 54°F)
Dewpoint: 12.0°C ( 54°F) [RH = 100%]
Pressure (altimeter):29.86 inches Hg (1011.3 mb)
Winds:from the ENE (60 degrees) at 5 MPH (4 knots; 2.1 m/s)
Visibility: 4 sm ( 6 km)
Ceiling:700 feet AGL
Clouds: overcast cloud deck at 700 feet AGL
Weather:BR (mist)
QC Flag:automated observation with no human augmentation
Text:KHLB 271035Z AUTO 05003G10KT 6SM BR OVC007 12/12 A2984 RMK A01
Temperature: 12.0°C ( 54°F)
Dewpoint: 12.0°C ( 54°F) [RH = 100%]
Pressure (altimeter):29.84 inches Hg (1010.6 mb)
Winds:from the NE (50 degrees) at 3 MPH (3 knots; 1.5 m/s) gusting to 12 MPH (10 knots; 5.1 m/s)
Visibility: 6 sm ( 10 km)
Ceiling:700 feet AGL
Clouds: overcast cloud deck at 700 feet AGL
Weather:BR (mist)
QC Flag:automated observation with no human augmentation
Text:KHLB 271015Z AUTO 07007KT 6SM BR OVC006 12/12 A2981 RMK A01
Temperature: 12.0°C ( 54°F)
Dewpoint: 12.0°C ( 54°F) [RH = 100%]
Pressure (altimeter):29.81 inches Hg (1009.6 mb)
Winds:from the ENE (70 degrees) at 8 MPH (7 knots; 3.6 m/s)
Visibility: 6 sm ( 10 km)
Ceiling:600 feet AGL
Clouds: overcast cloud deck at 600 feet AGL
Weather:BR (mist)
QC Flag:automated observation with no human augmentation
Text:KHLB 270955Z AUTO 11008KT 6SM BR OVC006 12/12 A2981 RMK A01
Temperature: 12.0°C ( 54°F)
Dewpoint: 12.0°C ( 54°F) [RH = 100%]
Pressure (altimeter):29.81 inches Hg (1009.6 mb)
Winds:from the ESE (110 degrees) at 9 MPH (8 knots; 4.1 m/s)
Visibility: 6 sm ( 10 km)
Ceiling:600 feet AGL
Clouds: overcast cloud deck at 600 feet AGL
Weather:BR (mist)
QC Flag:automated observation with no human augmentation
Text:KHLB 270935Z AUTO 08006KT 6SM BR OVC006 12/12 A2982 RMK A01
Temperature: 12.0°C ( 54°F)
Dewpoint: 12.0°C ( 54°F) [RH = 100%]
Pressure (altimeter):29.82 inches Hg (1009.9 mb)
Winds:from the E (80 degrees) at 7 MPH (6 knots; 3.1 m/s)
Visibility: 6 sm ( 10 km)
Ceiling:600 feet AGL
Clouds: overcast cloud deck at 600 feet AGL
Weather:BR (mist)
QC Flag:automated observation with no human augmentation
Text:KHLB 270915Z AUTO 07007KT 6SM BR OVC006 12/12 A2982 RMK A01
Temperature: 12.0°C ( 54°F)
Dewpoint: 12.0°C ( 54°F) [RH = 100%]
Pressure (altimeter):29.82 inches Hg (1009.9 mb)
Winds:from the ENE (70 degrees) at 8 MPH (7 knots; 3.6 m/s)
Visibility: 6 sm ( 10 km)
Ceiling:600 feet AGL
Clouds: overcast cloud deck at 600 feet AGL
Weather:BR (mist)
QC Flag:automated observation with no human augmentation
Text:KHLB 270855Z AUTO 06008KT 6SM BR OVC006 12/12 A2981 RMK A01
Temperature: 12.0°C ( 54°F)
Dewpoint: 12.0°C ( 54°F) [RH = 100%]
Pressure (altimeter):29.81 inches Hg (1009.6 mb)
Winds:from the ENE (60 degrees) at 9 MPH (8 knots; 4.1 m/s)
Visibility: 6 sm ( 10 km)
Ceiling:600 feet AGL
Clouds: overcast cloud deck at 600 feet AGL
Weather:BR (mist)
QC Flag:automated observation with no human augmentation
Text:KHLB 270835Z AUTO 08006KT 6SM BR OVC006 12/12 A2983 RMK A01
Temperature: 12.0°C ( 54°F)
Dewpoint: 12.0°C ( 54°F) [RH = 100%]
Pressure (altimeter):29.83 inches Hg (1010.2 mb)
Winds:from the E (80 degrees) at 7 MPH (6 knots; 3.1 m/s)
Visibility: 6 sm ( 10 km)
Ceiling:600 feet AGL
Clouds: overcast cloud deck at 600 feet AGL
Weather:BR (mist)
QC Flag:automated observation with no human augmentation
Text:KHLB 270815Z AUTO 06007KT 7SM OVC006 12/12 A2981 RMK A01
Temperature: 12.0°C ( 54°F)
Dewpoint: 12.0°C ( 54°F) [RH = 100%]
Pressure (altimeter):29.81 inches Hg (1009.6 mb)
Winds:from the ENE (60 degrees) at 8 MPH (7 knots; 3.6 m/s)
Visibility: 7 sm ( 11 km)
Ceiling:600 feet AGL
Clouds: overcast cloud deck at 600 feet AGL
QC Flag:automated observation with no human augmentation
Text:KHLB 270755Z AUTO 05007KT 8SM OVC007 12/12 A2981 RMK A01
Temperature: 12.0°C ( 54°F)
Dewpoint: 12.0°C ( 54°F) [RH = 100%]
Pressure (altimeter):29.81 inches Hg (1009.6 mb)
Winds:from the NE (50 degrees) at 8 MPH (7 knots; 3.6 m/s)
Visibility: 8 sm ( 13 km)
Ceiling:700 feet AGL
Clouds: overcast cloud deck at 700 feet AGL
QC Flag:automated observation with no human augmentation
Text:KHLB 270735Z AUTO 05007KT 9SM OVC007 12/12 A2981 RMK A01
Temperature: 12.0°C ( 54°F)
Dewpoint: 12.0°C ( 54°F) [RH = 100%]
Pressure (altimeter):29.81 inches Hg (1009.6 mb)
Winds:from the NE (50 degrees) at 8 MPH (7 knots; 3.6 m/s)
Visibility: 9 sm ( 14 km)
Ceiling:700 feet AGL
Clouds: overcast cloud deck at 700 feet AGL
QC Flag:automated observation with no human augmentation
Text:KHLB 270715Z AUTO 05007KT 10SM BKN008 OVC038 12/12 A2981 RMK A01
Temperature: 12.0°C ( 54°F)
Dewpoint: 12.0°C ( 54°F) [RH = 100%]
Pressure (altimeter):29.81 inches Hg (1009.6 mb)
Winds:from the NE (50 degrees) at 8 MPH (7 knots; 3.6 m/s)
Visibility:10 or more sm (16+ km)
Ceiling:800 feet AGL
Clouds: broken clouds at 800 feet AGL, overcast cloud deck at 3800 feet AGL
QC Flag:automated observation with no human augmentation
Text:KHLB 270655Z AUTO 04006KT 10SM FEW008 BKN037 OVC050 13/13 A2981 RMK A01
Temperature: 13.0°C ( 55°F)
Dewpoint: 13.0°C ( 55°F) [RH = 100%]
Pressure (altimeter):29.81 inches Hg (1009.6 mb)
Winds:from the NE (40 degrees) at 7 MPH (6 knots; 3.1 m/s)
Visibility:10 or more sm (16+ km)
Ceiling:3700 feet AGL
Clouds: few clouds at 800 feet AGL, broken clouds at 3700 feet AGL, overcast cloud deck at 5000 feet AGL
QC Flag:automated observation with no human augmentation
Text:KHLB 270635Z AUTO 05006KT 10SM BKN038 BKN047 OVC055 13/13 A2981 RMK A01
Temperature: 13.0°C ( 55°F)
Dewpoint: 13.0°C ( 55°F) [RH = 100%]
Pressure (altimeter):29.81 inches Hg (1009.6 mb)
Winds:from the NE (50 degrees) at 7 MPH (6 knots; 3.1 m/s)
Visibility:10 or more sm (16+ km)
Ceiling:3800 feet AGL
Clouds: broken clouds at 3800 feet AGL, broken clouds at 4700 feet AGL, overcast cloud deck at 5500 feet AGL
QC Flag:automated observation with no human augmentation
Text:KHLB 270615Z AUTO 04005KT 10SM FEW040 BKN050 OVC055 13/13 A2982 RMK A01
Temperature: 13.0°C ( 55°F)
Dewpoint: 13.0°C ( 55°F) [RH = 100%]
Pressure (altimeter):29.82 inches Hg (1009.9 mb)
Winds:from the NE (40 degrees) at 6 MPH (5 knots; 2.6 m/s)
Visibility:10 or more sm (16+ km)
Ceiling:5000 feet AGL
Clouds: few clouds at 4000 feet AGL, broken clouds at 5000 feet AGL, overcast cloud deck at 5500 feet AGL
QC Flag:automated observation with no human augmentation
Text:KHLB 270555Z AUTO 04006KT 10SM BKN038 BKN047 OVC055 13/13 A2981 RMK A01
Temperature: 13.0°C ( 55°F)
Dewpoint: 13.0°C ( 55°F) [RH = 100%]
Pressure (altimeter):29.81 inches Hg (1009.6 mb)
Winds:from the NE (40 degrees) at 7 MPH (6 knots; 3.1 m/s)
Visibility:10 or more sm (16+ km)
Ceiling:3800 feet AGL
Clouds: broken clouds at 3800 feet AGL, broken clouds at 4700 feet AGL, overcast cloud deck at 5500 feet AGL
QC Flag:automated observation with no human augmentation
Text:KHLB 270535Z AUTO 05005KT 10SM SCT008 OVC037 13/13 A2981 RMK A01
Temperature: 13.0°C ( 55°F)
Dewpoint: 13.0°C ( 55°F) [RH = 100%]
Pressure (altimeter):29.81 inches Hg (1009.6 mb)
Winds:from the NE (50 degrees) at 6 MPH (5 knots; 2.6 m/s)
Visibility:10 or more sm (16+ km)
Ceiling:3700 feet AGL
Clouds: scattered clouds at 800 feet AGL, overcast cloud deck at 3700 feet AGL
QC Flag:automated observation with no human augmentation
Text:KHLB 270515Z AUTO 06005KT 10SM OVC008 14/14 A2981 RMK A01
Temperature: 14.0°C ( 57°F)
Dewpoint: 14.0°C ( 57°F) [RH = 100%]
Pressure (altimeter):29.81 inches Hg (1009.6 mb)
Winds:from the ENE (60 degrees) at 6 MPH (5 knots; 2.6 m/s)
Visibility:10 or more sm (16+ km)
Ceiling:800 feet AGL
Clouds: overcast cloud deck at 800 feet AGL
QC Flag:automated observation with no human augmentation
Text:KHLB 270455Z AUTO 03005KT 10SM SCT008 OVC037 14/14 A2981 RMK A01
Temperature: 14.0°C ( 57°F)
Dewpoint: 14.0°C ( 57°F) [RH = 100%]
Pressure (altimeter):29.81 inches Hg (1009.6 mb)
Winds:from the NNE (30 degrees) at 6 MPH (5 knots; 2.6 m/s)
Visibility:10 or more sm (16+ km)
Ceiling:3700 feet AGL
Clouds: scattered clouds at 800 feet AGL, overcast cloud deck at 3700 feet AGL
QC Flag:automated observation with no human augmentation
Text:KHLB 270435Z AUTO 01007KT 10SM OVC036 14/14 A2980 RMK A01
Temperature: 14.0°C ( 57°F)
Dewpoint: 14.0°C ( 57°F) [RH = 100%]
Pressure (altimeter):29.80 inches Hg (1009.2 mb)
Winds:from the N (10 degrees) at 8 MPH (7 knots; 3.6 m/s)
Visibility:10 or more sm (16+ km)
Ceiling:3600 feet AGL
Clouds: overcast cloud deck at 3600 feet AGL
QC Flag:automated observation with no human augmentation
Text:KHLB 270415Z AUTO 01007KT 330V040 10SM OVC034 14/14 A2979 RMK A01
Temperature: 14.0°C ( 57°F)
Dewpoint: 14.0°C ( 57°F) [RH = 100%]
Pressure (altimeter):29.79 inches Hg (1008.9 mb)
Winds:from the N (10 degrees) at 8 MPH (7 knots; 3.6 m/s)
Visibility:10 or more sm (16+ km)
Ceiling:3400 feet AGL
Clouds: overcast cloud deck at 3400 feet AGL
QC Flag:automated observation with no human augmentation
Text:KHLB 270355Z AUTO 35004KT 10SM BKN035 OVC044 14/14 A2977 RMK A01
Temperature: 14.0°C ( 57°F)
Dewpoint: 14.0°C ( 57°F) [RH = 100%]
Pressure (altimeter):29.77 inches Hg (1008.2 mb)
Winds:from the N (350 degrees) at 5 MPH (4 knots; 2.1 m/s)
Visibility:10 or more sm (16+ km)
Ceiling:3500 feet AGL
Clouds: broken clouds at 3500 feet AGL, overcast cloud deck at 4400 feet AGL
QC Flag:automated observation with no human augmentation
Text:KHLB 270335Z AUTO 00000KT 10SM OVC035 15/15 A2977 RMK A01
Temperature: 15.0°C ( 59°F)
Dewpoint: 15.0°C ( 59°F) [RH = 100%]
Pressure (altimeter):29.77 inches Hg (1008.2 mb)
Winds:calm
Visibility:10 or more sm (16+ km)
Ceiling:3500 feet AGL
Clouds: overcast cloud deck at 3500 feet AGL
QC Flag:automated observation with no human augmentation
Text:KHLB 270315Z AUTO 00000KT 10SM BKN032 OVC039 15/15 A2977 RMK A01
Temperature: 15.0°C ( 59°F)
Dewpoint: 15.0°C ( 59°F) [RH = 100%]
Pressure (altimeter):29.77 inches Hg (1008.2 mb)
Winds:calm
Visibility:10 or more sm (16+ km)
Ceiling:3200 feet AGL
Clouds: broken clouds at 3200 feet AGL, overcast cloud deck at 3900 feet AGL
QC Flag:automated observation with no human augmentation
Text:KHLB 270255Z AUTO 00000KT 10SM BKN032 OVC038 15/15 A2976 RMK A01
Temperature: 15.0°C ( 59°F)
Dewpoint: 15.0°C ( 59°F) [RH = 100%]
Pressure (altimeter):29.76 inches Hg (1007.9 mb)
Winds:calm
Visibility:10 or more sm (16+ km)
Ceiling:3200 feet AGL
Clouds: broken clouds at 3200 feet AGL, overcast cloud deck at 3800 feet AGL
QC Flag:automated observation with no human augmentation
Text:KHLB 270235Z AUTO 00000KT 10SM OVC040 15/15 A2976 RMK A01
Temperature: 15.0°C ( 59°F)
Dewpoint: 15.0°C ( 59°F) [RH = 100%]
Pressure (altimeter):29.76 inches Hg (1007.9 mb)
Winds:calm
Visibility:10 or more sm (16+ km)
Ceiling:4000 feet AGL
Clouds: overcast cloud deck at 4000 feet AGL
QC Flag:automated observation with no human augmentation
Text:KHLB 270215Z AUTO 00000KT 10SM OVC044 16/15 A2975 RMK A01
Temperature: 16.0°C ( 61°F)
Dewpoint: 15.0°C ( 59°F) [RH = 94%]
Pressure (altimeter):29.75 inches Hg (1007.5 mb)
Winds:calm
Visibility:10 or more sm (16+ km)
Ceiling:4400 feet AGL
Clouds: overcast cloud deck at 4400 feet AGL
QC Flag:automated observation with no human augmentation
Text:KHLB 270155Z AUTO VRB03KT 10SM OVC047 16/15 A2974 RMK A01
Temperature: 16.0°C ( 61°F)
Dewpoint: 15.0°C ( 59°F) [RH = 94%]
Pressure (altimeter):29.74 inches Hg (1007.2 mb)
Winds:variable direction winds at 3 MPH (3 knots; 1.5 m/s)
Visibility:10 or more sm (16+ km)
Ceiling:4700 feet AGL
Clouds: overcast cloud deck at 4700 feet AGL
QC Flag:automated observation with no human augmentation
Text:KHLB 270135Z AUTO VRB05KT 10SM OVC050 16/14 A2973 RMK A01
Temperature: 16.0°C ( 61°F)
Dewpoint: 14.0°C ( 57°F) [RH = 88%]
Pressure (altimeter):29.73 inches Hg (1006.9 mb)
Winds:variable direction winds at 6 MPH (5 knots; 2.6 m/s)
Visibility:10 or more sm (16+ km)
Ceiling:5000 feet AGL
Clouds: overcast cloud deck at 5000 feet AGL
QC Flag:automated observation with no human augmentation
Text:KHLB 270115Z AUTO 04005KT 10SM OVC050 16/14 A2971 RMK A01
Temperature: 16.0°C ( 61°F)
Dewpoint: 14.0°C ( 57°F) [RH = 88%]
Pressure (altimeter):29.71 inches Hg (1006.2 mb)
Winds:from the NE (40 degrees) at 6 MPH (5 knots; 2.6 m/s)
Visibility:10 or more sm (16+ km)
Ceiling:5000 feet AGL
Clouds: overcast cloud deck at 5000 feet AGL
QC Flag:automated observation with no human augmentation
Text:KHLB 270055Z AUTO 03005KT 10SM OVC050 17/14 A2972 RMK A01
Temperature: 17.0°C ( 63°F)
Dewpoint: 14.0°C ( 57°F) [RH = 82%]
Pressure (altimeter):29.72 inches Hg (1006.5 mb)
Winds:from the NNE (30 degrees) at 6 MPH (5 knots; 2.6 m/s)
Visibility:10 or more sm (16+ km)
Ceiling:5000 feet AGL
Clouds: overcast cloud deck at 5000 feet AGL
QC Flag:automated observation with no human augmentation
Text:KHLB 270035Z AUTO 03004KT 10SM OVC050 17/14 A2972 RMK A01
Temperature: 17.0°C ( 63°F)
Dewpoint: 14.0°C ( 57°F) [RH = 82%]
Pressure (altimeter):29.72 inches Hg (1006.5 mb)
Winds:from the NNE (30 degrees) at 5 MPH (4 knots; 2.1 m/s)
Visibility:10 or more sm (16+ km)
Ceiling:5000 feet AGL
Clouds: overcast cloud deck at 5000 feet AGL
QC Flag:automated observation with no human augmentation
Text:KHLB 270015Z AUTO 00000KT 10SM BKN055 OVC065 17/14 A2972 RMK A01
Temperature: 17.0°C ( 63°F)
Dewpoint: 14.0°C ( 57°F) [RH = 82%]
Pressure (altimeter):29.72 inches Hg (1006.5 mb)
Winds:calm
Visibility:10 or more sm (16+ km)
Ceiling:5500 feet AGL
Clouds: broken clouds at 5500 feet AGL, overcast cloud deck at 6500 feet AGL
QC Flag:automated observation with no human augmentation
Text:KHLB 262355Z AUTO 00000KT 10SM BKN055 OVC070 17/14 A2973 RMK A01
Temperature: 17.0°C ( 63°F)
Dewpoint: 14.0°C ( 57°F) [RH = 82%]
Pressure (altimeter):29.73 inches Hg (1006.9 mb)
Winds:calm
Visibility:10 or more sm (16+ km)
Ceiling:5500 feet AGL
Clouds: broken clouds at 5500 feet AGL, overcast cloud deck at 7000 feet AGL
QC Flag:automated observation with no human augmentation
Text:KHLB 262335Z AUTO 00000KT 10SM OVC055 17/14 A2974 RMK A01
Temperature: 17.0°C ( 63°F)
Dewpoint: 14.0°C ( 57°F) [RH = 82%]
Pressure (altimeter):29.74 inches Hg (1007.2 mb)
Winds:calm
Visibility:10 or more sm (16+ km)
Ceiling:5500 feet AGL
Clouds: overcast cloud deck at 5500 feet AGL
QC Flag:automated observation with no human augmentation
Text:KHLB 262315Z AUTO 00000KT 10SM OVC055 17/14 A2973 RMK A01
Temperature: 17.0°C ( 63°F)
Dewpoint: 14.0°C ( 57°F) [RH = 82%]
Pressure (altimeter):29.73 inches Hg (1006.9 mb)
Winds:calm
Visibility:10 or more sm (16+ km)
Ceiling:5500 feet AGL
Clouds: overcast cloud deck at 5500 feet AGL
QC Flag:automated observation with no human augmentation
Text:KHLB 262255Z AUTO 00000KT 10SM OVC055 17/14 A2971 RMK A01
Temperature: 17.0°C ( 63°F)
Dewpoint: 14.0°C ( 57°F) [RH = 82%]
Pressure (altimeter):29.71 inches Hg (1006.2 mb)
Winds:calm
Visibility:10 or more sm (16+ km)
Ceiling:5500 feet AGL
Clouds: overcast cloud deck at 5500 feet AGL
QC Flag:automated observation with no human augmentation
Text:KHLB 262235Z AUTO 00000KT 10SM BKN055 17/14 A2970 RMK A01
Temperature: 17.0°C ( 63°F)
Dewpoint: 14.0°C ( 57°F) [RH = 82%]
Pressure (altimeter):29.70 inches Hg (1005.8 mb)
Winds:calm
Visibility:10 or more sm (16+ km)
Ceiling:5500 feet AGL
Clouds: broken clouds at 5500 feet AGL
QC Flag:automated observation with no human augmentation
Text:KHLB 262215Z AUTO 17005G11KT 10SM FEW055 18/14 A2968 RMK A01
Temperature: 18.0°C ( 64°F)
Dewpoint: 14.0°C ( 57°F) [RH = 77%]
Pressure (altimeter):29.68 inches Hg (1005.2 mb)
Winds:from the S (170 degrees) at 6 MPH (5 knots; 2.6 m/s) gusting to 13 MPH (11 knots; 5.7 m/s)
Visibility:10 or more sm (16+ km)
Ceiling:at least 12,000 feet AGL
Clouds: few clouds at 5500 feet AGL
QC Flag:automated observation with no human augmentation
Text:KHLB 262155Z AUTO 17010G16KT 9SM FEW090 FEW110 17/15 A2967 RMK A01
Temperature: 17.0°C ( 63°F)
Dewpoint: 15.0°C ( 59°F) [RH = 88%]
Pressure (altimeter):29.67 inches Hg (1004.8 mb)
Winds:from the S (170 degrees) at 12 MPH (10 knots; 5.1 m/s) gusting to 18 MPH (16 knots; 8.2 m/s)
Visibility: 9 sm ( 14 km)
Ceiling:at least 12,000 feet AGL
Clouds: few clouds at 9000 feet AGL, few clouds at 11000 feet AGL
QC Flag:automated observation with no human augmentation
Text:KHLB 262135Z AUTO 17010G16KT 10SM FEW095 18/13 A2971 RMK A01
Temperature: 18.0°C ( 64°F)
Dewpoint: 13.0°C ( 55°F) [RH = 73%]
Pressure (altimeter):29.71 inches Hg (1006.2 mb)
Winds:from the S (170 degrees) at 12 MPH (10 knots; 5.1 m/s) gusting to 18 MPH (16 knots; 8.2 m/s)
Visibility:10 or more sm (16+ km)
Ceiling:at least 12,000 feet AGL
Clouds: few clouds at 9500 feet AGL
QC Flag:automated observation with no human augmentation
Text:KHLB 262115Z AUTO 18008G15KT 10SM FEW037 18/13 A2972 RMK A01
Temperature: 18.0°C ( 64°F)
Dewpoint: 13.0°C ( 55°F) [RH = 73%]
Pressure (altimeter):29.72 inches Hg (1006.5 mb)
Winds:from the S (180 degrees) at 9 MPH (8 knots; 4.1 m/s) gusting to 17 MPH (15 knots; 7.7 m/s)
Visibility:10 or more sm (16+ km)
Ceiling:at least 12,000 feet AGL
Clouds: few clouds at 3700 feet AGL
QC Flag:automated observation with no human augmentation